CSN6166 ZYCC-ZUGY
Flight info
| Callsign | CSN6166 |
|---|---|
| Flight time | 3h 43m |
| Altitude | 32100 |
| Route | BUTET G341 TGO B334 KAKAT/K0841S1040 W28 VERMI DCT HET W84 IBARO W47 LOVRA W276 ARELA W30 TAMUS/K0865S1070 W180 IVSOL/K0863S1100 W180 BONSA/K0861S1070 W180 MEMAG |
| Aircraft | B738/M-SDE2E3FGHIRWXY/LB1 |
Departure
| Time | 2026-05-04 07:01 |
|---|---|
| Airport | Changchun Longjia International Airport (ZYCC) |
Arrival
| Time | 2026-05-04 10:44 |
|---|---|
| Airport | Guiyang Longdongbao International Airport (ZUGY) |
| Time | Latitude | Longitude | Altitude | Speed | Heading |
|---|---|---|---|---|---|
| 2026-05-04 06:13 | 43.99826 | 125.69654 | 710 ft | 0 kts | 139° |
| 2026-05-04 06:50 | 43.99865 | 125.69582 | 711 ft | 2 kts | 86° |
| 2026-05-04 06:51 | 43.99862 | 125.69563 | 711 ft | 2 kts | 62° |
| 2026-05-04 06:51 | 43.99857 | 125.69552 | 711 ft | 1 kts | 49° |
| 2026-05-04 06:51 | 43.99853 | 125.69546 | 711 ft | 0 kts | 49° |
| 2026-05-04 06:53 | 43.99858 | 125.69553 | 710 ft | 2 kts | 49° |
| 2026-05-04 06:54 | 43.99872 | 125.69576 | 710 ft | 3 kts | 49° |
| 2026-05-04 06:54 | 43.99892 | 125.69607 | 710 ft | 4 kts | 48° |
| 2026-05-04 06:54 | 43.99915 | 125.69643 | 710 ft | 5 kts | 48° |
| 2026-05-04 06:54 | 43.99939 | 125.69684 | 710 ft | 5 kts | 52° |
| 2026-05-04 06:55 | 43.99965 | 125.69727 | 710 ft | 6 kts | 50° |
| 2026-05-04 06:55 | 43.99994 | 125.69773 | 710 ft | 6 kts | 44° |
| 2026-05-04 06:55 | 44.00035 | 125.69789 | 710 ft | 6 kts | 346° |
| 2026-05-04 06:55 | 44.00073 | 125.69755 | 710 ft | 6 kts | 320° |
| 2026-05-04 06:56 | 44.00112 | 125.69714 | 710 ft | 7 kts | 339° |
| 2026-05-04 06:57 | 44.00380 | 125.70089 | 710 ft | 9 kts | 49° |
| 2026-05-04 06:58 | 44.00414 | 125.70140 | 710 ft | 4 kts | 32° |
| 2026-05-04 06:58 | 44.00447 | 125.70149 | 710 ft | 4 kts | 350° |
| 2026-05-04 06:58 | 44.00477 | 125.70123 | 710 ft | 5 kts | 321° |
| 2026-05-04 06:58 | 44.00507 | 125.70088 | 710 ft | 5 kts | 321° |
| 2026-05-04 06:59 | 44.00536 | 125.70049 | 710 ft | 6 kts | 309° |
| 2026-05-04 06:59 | 44.00542 | 125.69993 | 710 ft | 6 kts | 252° |
| 2026-05-04 06:59 | 44.00529 | 125.69965 | 710 ft | 0 kts | 230° |
| 2026-05-04 06:59 | 44.00520 | 125.69950 | 710 ft | 16 kts | 230° |
| 2026-05-04 07:01 | 43.95522 | 125.61929 | 3275 ft | 196 kts | 232° |
| 2026-05-04 07:01 | 43.94635 | 125.60504 | 3873 ft | 197 kts | 232° |
| 2026-05-04 07:02 | 43.93710 | 125.59027 | 4266 ft | 209 kts | 232° |
| 2026-05-04 07:02 | 43.92720 | 125.57450 | 4617 ft | 224 kts | 232° |
| 2026-05-04 07:02 | 43.91668 | 125.55760 | 4997 ft | 238 kts | 231° |
| 2026-05-04 07:02 | 43.90570 | 125.54007 | 5490 ft | 247 kts | 231° |
| 2026-05-04 07:03 | 43.89414 | 125.52169 | 6009 ft | 256 kts | 232° |
| 2026-05-04 07:03 | 43.88204 | 125.50243 | 6442 ft | 269 kts | 232° |
| 2026-05-04 07:03 | 43.86975 | 125.48298 | 7089 ft | 273 kts | 232° |
| 2026-05-04 07:03 | 43.85700 | 125.46243 | 6877 ft | 281 kts | 232° |
| 2026-05-04 07:04 | 43.84461 | 125.44246 | 6890 ft | 267 kts | 233° |
| 2026-05-04 07:04 | 43.83258 | 125.42314 | 6897 ft | 267 kts | 233° |
| 2026-05-04 07:04 | 43.81999 | 125.40281 | 7305 ft | 280 kts | 232° |
| 2026-05-04 07:04 | 43.80747 | 125.38272 | 8142 ft | 278 kts | 231° |
| 2026-05-04 07:05 | 43.79510 | 125.36191 | 8792 ft | 284 kts | 236° |
| 2026-05-04 07:05 | 43.78632 | 125.33775 | 9379 ft | 290 kts | 256° |
| 2026-05-04 07:05 | 43.78357 | 125.30970 | 10029 ft | 292 kts | 267° |
| 2026-05-04 07:05 | 43.78286 | 125.28131 | 10587 ft | 299 kts | 268° |
| 2026-05-04 07:06 | 43.78081 | 125.22116 | 11232 ft | 328 kts | 266° |
| 2026-05-04 07:06 | 43.77916 | 125.18858 | 11577 ft | 341 kts | 266° |
| 2026-05-04 07:06 | 43.77733 | 125.15543 | 11950 ft | 352 kts | 267° |
| 2026-05-04 07:07 | 43.77534 | 125.12113 | 12465 ft | 359 kts | 268° |
| 2026-05-04 07:08 | 43.76143 | 124.87493 | 17051 ft | 381 kts | 271° |
| 2026-05-04 07:09 | 43.75930 | 124.83839 | 17702 ft | 383 kts | 271° |
| 2026-05-04 07:09 | 43.75712 | 124.80096 | 18235 ft | 389 kts | 271° |
| 2026-05-04 07:09 | 43.75496 | 124.76399 | 18826 ft | 392 kts | 271° |
| 2026-05-04 07:09 | 43.75272 | 124.72608 | 19393 ft | 395 kts | 271° |
| 2026-05-04 07:10 | 43.75045 | 124.68774 | 19949 ft | 399 kts | 271° |
| 2026-05-04 07:10 | 43.74816 | 124.64925 | 20471 ft | 403 kts | 271° |
| 2026-05-04 07:12 | 43.71120 | 124.37640 | 24032 ft | 437 kts | 251° |
| 2026-05-04 07:12 | 43.69808 | 124.33787 | 24499 ft | 441 kts | 250° |
| 2026-05-04 07:12 | 43.68583 | 124.29818 | 24917 ft | 441 kts | 256° |
| 2026-05-04 07:12 | 43.67775 | 124.25774 | 25414 ft | 437 kts | 264° |
| 2026-05-04 07:13 | 43.67321 | 124.21664 | 25853 ft | 436 kts | 269° |
| 2026-05-04 07:13 | 43.67049 | 124.17500 | 26239 ft | 438 kts | 271° |
| 2026-05-04 07:13 | 43.66860 | 124.13269 | 26692 ft | 439 kts | 272° |
| 2026-05-04 07:14 | 43.66130 | 123.96551 | 29022 ft | 430 kts | 272° |
| 2026-05-04 07:14 | 43.65916 | 123.92436 | 29471 ft | 430 kts | 272° |
| 2026-05-04 07:15 | 43.65690 | 123.88295 | 29916 ft | 430 kts | 271° |
| 2026-05-04 07:15 | 43.65456 | 123.84144 | 30293 ft | 431 kts | 271° |
| 2026-05-04 07:15 | 43.65216 | 123.79989 | 30685 ft | 431 kts | 271° |
| 2026-05-04 07:15 | 43.64973 | 123.75883 | 31126 ft | 430 kts | 271° |
| 2026-05-04 07:16 | 43.64724 | 123.71758 | 31563 ft | 428 kts | 271° |
| 2026-05-04 07:16 | 43.64471 | 123.67612 | 31752 ft | 430 kts | 271° |
| 2026-05-04 07:16 | 43.63963 | 123.59401 | 31756 ft | 425 kts | 271° |
| 2026-05-04 07:17 | 43.63454 | 123.51251 | 31760 ft | 426 kts | 271° |
| 2026-05-04 07:17 | 43.62937 | 123.43024 | 31751 ft | 426 kts | 271° |
| 2026-05-04 07:18 | 43.62415 | 123.34843 | 31761 ft | 425 kts | 271° |
| 2026-05-04 07:18 | 43.61887 | 123.26636 | 31759 ft | 427 kts | 270° |
| 2026-05-04 07:19 | 43.61356 | 123.18455 | 31750 ft | 425 kts | 271° |
| 2026-05-04 07:19 | 43.60914 | 123.10339 | 31745 ft | 426 kts | 271° |
| 2026-05-04 07:20 | 43.60513 | 123.02139 | 31742 ft | 426 kts | 272° |
| 2026-05-04 07:20 | 43.60109 | 122.94006 | 31748 ft | 425 kts | 271° |
| 2026-05-04 07:22 | 43.58372 | 122.61343 | 31738 ft | 427 kts | 271° |
| 2026-05-04 07:23 | 43.57918 | 122.53178 | 31747 ft | 425 kts | 271° |
| 2026-05-04 07:23 | 43.57458 | 122.44991 | 31740 ft | 426 kts | 271° |
| 2026-05-04 07:24 | 43.56994 | 122.36803 | 31741 ft | 427 kts | 271° |
| 2026-05-04 07:24 | 43.56520 | 122.28580 | 31740 ft | 428 kts | 270° |
| 2026-05-04 07:26 | 43.48488 | 121.97199 | 31742 ft | 443 kts | 250° |
| 2026-05-04 07:27 | 43.45824 | 121.89546 | 31753 ft | 442 kts | 250° |
| 2026-05-04 07:27 | 43.43177 | 121.81870 | 31753 ft | 441 kts | 251° |
| 2026-05-04 07:28 | 43.40543 | 121.74197 | 31757 ft | 441 kts | 251° |
| 2026-05-04 07:28 | 43.37920 | 121.66557 | 31754 ft | 442 kts | 251° |
| 2026-05-04 07:29 | 43.35275 | 121.58869 | 31763 ft | 442 kts | 250° |
| 2026-05-04 07:29 | 43.32641 | 121.51231 | 31769 ft | 441 kts | 251° |
| 2026-05-04 07:30 | 43.30009 | 121.43625 | 31757 ft | 441 kts | 250° |
| 2026-05-04 07:30 | 43.27383 | 121.36060 | 31770 ft | 440 kts | 251° |
| 2026-05-04 07:31 | 43.24720 | 121.28402 | 31762 ft | 440 kts | 250° |
| 2026-05-04 07:33 | 43.14085 | 120.98031 | 31763 ft | 441 kts | 250° |
| 2026-05-04 07:33 | 43.11413 | 120.90459 | 31763 ft | 440 kts | 250° |
| 2026-05-04 07:34 | 43.08748 | 120.82920 | 31776 ft | 441 kts | 250° |
| 2026-05-04 07:34 | 43.06073 | 120.75375 | 31780 ft | 440 kts | 250° |
| 2026-05-04 07:35 | 43.03388 | 120.67827 | 31805 ft | 440 kts | 250° |
| 2026-05-04 07:35 | 43.00713 | 120.60325 | 31795 ft | 440 kts | 250° |
| 2026-05-04 07:36 | 42.98003 | 120.52744 | 31796 ft | 441 kts | 250° |
| 2026-05-04 07:38 | 42.87636 | 120.22364 | 31806 ft | 440 kts | 250° |
| 2026-05-04 07:38 | 42.85069 | 120.14786 | 31813 ft | 440 kts | 250° |
| 2026-05-04 07:39 | 42.82475 | 120.07173 | 31819 ft | 441 kts | 250° |
| 2026-05-04 07:39 | 42.79890 | 119.99618 | 31834 ft | 440 kts | 250° |
| 2026-05-04 07:40 | 42.77304 | 119.92080 | 31839 ft | 439 kts | 250° |
| 2026-05-04 07:40 | 42.74715 | 119.84551 | 31850 ft | 441 kts | 250° |
| 2026-05-04 07:41 | 42.72107 | 119.76989 | 31855 ft | 440 kts | 250° |
| 2026-05-04 07:41 | 42.69506 | 119.69472 | 31838 ft | 440 kts | 250° |
| 2026-05-04 07:42 | 42.66898 | 119.61958 | 31827 ft | 439 kts | 250° |
| 2026-05-04 07:42 | 42.64276 | 119.54418 | 31845 ft | 440 kts | 250° |
| 2026-05-04 07:43 | 42.61660 | 119.46915 | 31840 ft | 440 kts | 250° |
| 2026-05-04 07:43 | 42.59039 | 119.39424 | 31846 ft | 438 kts | 250° |
| 2026-05-04 07:44 | 42.56393 | 119.31880 | 31849 ft | 438 kts | 249° |
| 2026-05-04 07:44 | 42.53765 | 119.24403 | 31863 ft | 440 kts | 249° |
| 2026-05-04 07:45 | 42.51122 | 119.16909 | 31869 ft | 440 kts | 249° |
| 2026-05-04 07:45 | 42.48484 | 119.09447 | 31888 ft | 439 kts | 249° |
| 2026-05-04 07:46 | 42.45857 | 119.02035 | 31906 ft | 439 kts | 249° |
| 2026-05-04 07:46 | 42.43208 | 118.94583 | 31911 ft | 438 kts | 249° |
| 2026-05-04 07:47 | 42.40543 | 118.87106 | 31914 ft | 439 kts | 249° |
| 2026-05-04 07:49 | 42.29869 | 118.57349 | 31919 ft | 439 kts | 249° |
| 2026-05-04 07:49 | 42.27184 | 118.49915 | 31918 ft | 439 kts | 249° |
| 2026-05-04 07:50 | 42.24495 | 118.42488 | 31920 ft | 441 kts | 249° |
| 2026-05-04 07:50 | 42.21867 | 118.35039 | 31931 ft | 438 kts | 253° |
| 2026-05-04 07:51 | 42.20479 | 118.27128 | 31948 ft | 428 kts | 271° |
| 2026-05-04 07:51 | 42.21003 | 118.19215 | 31961 ft | 421 kts | 285° |
| 2026-05-04 07:52 | 42.22859 | 118.11779 | 31973 ft | 418 kts | 296° |
| 2026-05-04 07:52 | 42.25378 | 118.04669 | 31986 ft | 416 kts | 298° |
| 2026-05-04 07:54 | 42.35147 | 117.77312 | 31995 ft | 415 kts | 296° |
| 2026-05-04 07:55 | 42.36966 | 117.69848 | 31987 ft | 420 kts | 282° |
| 2026-05-04 07:55 | 42.37180 | 117.61921 | 31982 ft | 426 kts | 271° |
| 2026-05-04 07:56 | 42.36814 | 117.53892 | 31986 ft | 427 kts | 270° |
| 2026-05-04 07:56 | 42.36362 | 117.45917 | 31990 ft | 426 kts | 270° |
| 2026-05-04 07:57 | 42.35926 | 117.37917 | 31991 ft | 426 kts | 270° |
| 2026-05-04 07:57 | 42.35509 | 117.29858 | 31992 ft | 426 kts | 269° |
| 2026-05-04 07:58 | 42.35106 | 117.21900 | 31996 ft | 427 kts | 270° |
| 2026-05-04 07:58 | 42.34699 | 117.13858 | 31996 ft | 425 kts | 269° |
| 2026-05-04 07:59 | 42.34288 | 117.05828 | 32007 ft | 427 kts | 269° |
| 2026-05-04 07:59 | 42.33872 | 116.97819 | 32001 ft | 426 kts | 269° |
| 2026-05-04 08:00 | 42.33449 | 116.89799 | 32003 ft | 426 kts | 269° |
| 2026-05-04 08:02 | 42.31707 | 116.57755 | 31994 ft | 426 kts | 269° |
| 2026-05-04 08:02 | 42.31260 | 116.49802 | 31988 ft | 426 kts | 269° |
| 2026-05-04 08:03 | 42.30806 | 116.41815 | 31995 ft | 427 kts | 269° |
| 2026-05-04 08:03 | 42.30343 | 116.33791 | 31998 ft | 427 kts | 269° |
| 2026-05-04 08:04 | 42.29871 | 116.25703 | 32002 ft | 428 kts | 269° |
| 2026-05-04 08:04 | 42.29402 | 116.17740 | 32002 ft | 428 kts | 269° |
| 2026-05-04 08:05 | 42.28923 | 116.09700 | 31999 ft | 428 kts | 269° |
| 2026-05-04 08:05 | 42.28434 | 116.01623 | 31989 ft | 427 kts | 269° |
| 2026-05-04 08:06 | 42.27943 | 115.93581 | 31994 ft | 428 kts | 269° |
| 2026-05-04 08:06 | 42.27448 | 115.85584 | 31994 ft | 426 kts | 269° |
| 2026-05-04 08:08 | 42.25416 | 115.53606 | 31990 ft | 427 kts | 269° |
| 2026-05-04 08:11 | 42.23016 | 115.17568 | 32007 ft | 426 kts | 268° |
| 2026-05-04 08:11 | 42.22185 | 115.05579 | 31996 ft | 426 kts | 268° |
| 2026-05-04 08:12 | 42.21627 | 114.97588 | 31989 ft | 427 kts | 268° |
| 2026-05-04 08:12 | 42.21062 | 114.89599 | 31996 ft | 428 kts | 268° |
| 2026-05-04 08:13 | 42.20488 | 114.81561 | 31993 ft | 427 kts | 268° |
| 2026-05-04 08:13 | 42.19911 | 114.73561 | 32002 ft | 428 kts | 268° |
| 2026-05-04 08:14 | 42.19332 | 114.65614 | 32005 ft | 428 kts | 268° |
| 2026-05-04 08:16 | 42.16950 | 114.33654 | 32024 ft | 428 kts | 268° |
| 2026-05-04 08:16 | 42.16336 | 114.25613 | 32013 ft | 429 kts | 268° |
| 2026-05-04 08:17 | 42.15720 | 114.17623 | 32021 ft | 429 kts | 268° |
| 2026-05-04 08:17 | 42.15097 | 114.09614 | 32015 ft | 429 kts | 268° |
| 2026-05-04 08:19 | 42.12545 | 113.77550 | 32040 ft | 430 kts | 268° |
| 2026-05-04 08:20 | 42.11897 | 113.69590 | 32022 ft | 429 kts | 268° |
| 2026-05-04 08:20 | 42.11241 | 113.61598 | 32010 ft | 429 kts | 268° |
| 2026-05-04 08:21 | 42.10135 | 113.53631 | 32003 ft | 436 kts | 256° |
| 2026-05-04 08:21 | 42.08901 | 113.49932 | 32016 ft | 444 kts | 245° |
| 2026-05-04 08:21 | 42.07090 | 113.46412 | 32024 ft | 451 kts | 236° |
| 2026-05-04 08:22 | 42.02643 | 113.40334 | 32028 ft | 456 kts | 227° |
| 2026-05-04 08:24 | 41.83289 | 113.17642 | 32048 ft | 459 kts | 226° |
| 2026-05-04 08:24 | 41.78481 | 113.11993 | 32058 ft | 459 kts | 226° |
| 2026-05-04 08:25 | 41.73653 | 113.06323 | 32061 ft | 459 kts | 226° |
| 2026-05-04 08:25 | 41.68821 | 113.00655 | 32052 ft | 459 kts | 226° |
| 2026-05-04 08:27 | 41.49514 | 112.78120 | 32066 ft | 461 kts | 226° |
| 2026-05-04 08:28 | 41.44659 | 112.72480 | 32077 ft | 461 kts | 226° |
| 2026-05-04 08:28 | 41.39798 | 112.66847 | 32090 ft | 462 kts | 226° |
| 2026-05-04 08:29 | 41.34949 | 112.61241 | 32100 ft | 463 kts | 225° |
| 2026-05-04 08:31 | 41.15434 | 112.38785 | 32107 ft | 463 kts | 226° |
| 2026-05-04 08:33 | 40.95812 | 112.16402 | 32074 ft | 465 kts | 225° |
| 2026-05-04 08:35 | 40.76035 | 111.94142 | 32044 ft | 466 kts | 221° |
| 2026-05-04 08:35 | 40.70231 | 111.90141 | 32040 ft | 477 kts | 198° |
| 2026-05-04 08:37 | 40.50206 | 111.87858 | 32082 ft | 482 kts | 185° |
| 2026-05-04 08:37 | 40.46852 | 111.87635 | 32085 ft | 482 kts | 185° |
| 2026-05-04 08:38 | 40.40085 | 111.87145 | 32091 ft | 483 kts | 186° |
| 2026-05-04 08:38 | 40.33349 | 111.86622 | 32093 ft | 480 kts | 186° |
| 2026-05-04 08:40 | 40.06548 | 111.84454 | 32116 ft | 480 kts | 186° |
| 2026-05-04 08:41 | 39.99935 | 111.83096 | 32122 ft | 473 kts | 202° |
| 2026-05-04 08:41 | 39.96946 | 111.81332 | 32124 ft | 467 kts | 215° |
| 2026-05-04 08:41 | 39.94275 | 111.78960 | 32124 ft | 463 kts | 221° |
| 2026-05-04 08:42 | 39.89236 | 111.73694 | 32119 ft | 460 kts | 225° |
| 2026-05-04 08:42 | 39.84315 | 111.68263 | 32118 ft | 461 kts | 225° |
| 2026-05-04 08:43 | 39.79398 | 111.62839 | 32117 ft | 462 kts | 225° |
| 2026-05-04 08:43 | 39.74466 | 111.57456 | 32116 ft | 461 kts | 224° |
| 2026-05-04 08:44 | 39.69515 | 111.52098 | 32099 ft | 461 kts | 224° |
| 2026-05-04 08:46 | 39.49679 | 111.30836 | 32080 ft | 461 kts | 224° |
| 2026-05-04 08:46 | 39.44736 | 111.25568 | 32083 ft | 462 kts | 224° |
| 2026-05-04 08:47 | 39.39739 | 111.20252 | 32066 ft | 462 kts | 224° |
| 2026-05-04 08:47 | 39.34752 | 111.14957 | 32068 ft | 462 kts | 224° |
| 2026-05-04 08:48 | 39.29740 | 111.09646 | 32065 ft | 462 kts | 224° |
| 2026-05-04 08:48 | 39.24764 | 111.04382 | 32052 ft | 461 kts | 224° |
| 2026-05-04 08:49 | 39.20171 | 110.98653 | 32042 ft | 453 kts | 238° |
| 2026-05-04 08:50 | 39.10270 | 110.73859 | 32070 ft | 450 kts | 241° |
| 2026-05-04 08:51 | 39.06803 | 110.67153 | 32074 ft | 450 kts | 242° |
| 2026-05-04 08:51 | 39.03369 | 110.60318 | 32068 ft | 449 kts | 242° |
| 2026-05-04 08:52 | 39.00045 | 110.53563 | 32062 ft | 448 kts | 243° |
| 2026-05-04 08:52 | 38.96722 | 110.46748 | 32063 ft | 448 kts | 243° |
| 2026-05-04 08:54 | 38.83374 | 110.19399 | 32076 ft | 448 kts | 242° |
| 2026-05-04 08:55 | 38.80063 | 110.12650 | 32078 ft | 448 kts | 242° |
| 2026-05-04 08:55 | 38.76718 | 110.05840 | 32079 ft | 448 kts | 242° |
| 2026-05-04 09:01 | 38.41235 | 109.35528 | 32068 ft | 452 kts | 229° |
| 2026-05-04 09:01 | 38.38745 | 109.32916 | 32072 ft | 458 kts | 216° |
| 2026-05-04 09:01 | 38.35925 | 109.30998 | 32067 ft | 462 kts | 205° |
| 2026-05-04 09:02 | 38.29735 | 109.28727 | 32062 ft | 465 kts | 191° |
| 2026-05-04 09:02 | 38.23273 | 109.27931 | 32057 ft | 467 kts | 184° |
| 2026-05-04 09:03 | 38.16725 | 109.27660 | 32060 ft | 466 kts | 183° |
| 2026-05-04 09:03 | 38.10218 | 109.27428 | 32062 ft | 464 kts | 183° |
| 2026-05-04 09:04 | 38.03733 | 109.27125 | 32064 ft | 465 kts | 184° |
| 2026-05-04 09:04 | 37.98287 | 109.26835 | 32064 ft | 464 kts | 184° |
| 2026-05-04 09:05 | 37.91851 | 109.26470 | 32072 ft | 465 kts | 184° |
| 2026-05-04 09:05 | 37.85279 | 109.26087 | 32084 ft | 465 kts | 184° |
| 2026-05-04 09:06 | 37.78799 | 109.25706 | 32086 ft | 464 kts | 184° |
| 2026-05-04 09:08 | 37.52909 | 109.24184 | 32101 ft | 465 kts | 184° |
| 2026-05-04 09:08 | 37.46426 | 109.23804 | 32103 ft | 466 kts | 184° |
| 2026-05-04 09:09 | 37.39885 | 109.23421 | 32109 ft | 466 kts | 184° |
| 2026-05-04 09:09 | 37.33376 | 109.23041 | 32114 ft | 467 kts | 184° |
| 2026-05-04 09:10 | 37.26875 | 109.22662 | 32122 ft | 467 kts | 184° |
| 2026-05-04 09:10 | 37.20359 | 109.22283 | 32118 ft | 466 kts | 184° |
| 2026-05-04 09:11 | 37.13834 | 109.21905 | 32115 ft | 467 kts | 184° |
| 2026-05-04 09:11 | 37.07292 | 109.21525 | 32117 ft | 467 kts | 184° |
| 2026-05-04 09:12 | 37.00792 | 109.21149 | 32119 ft | 467 kts | 184° |
| 2026-05-04 09:14 | 36.74635 | 109.19644 | 32107 ft | 468 kts | 184° |
| 2026-05-04 09:14 | 36.68114 | 109.19270 | 32108 ft | 468 kts | 185° |
| 2026-05-04 09:15 | 36.61771 | 109.18906 | 32110 ft | 468 kts | 185° |
| 2026-05-04 09:15 | 36.55655 | 109.18557 | 32114 ft | 468 kts | 184° |
| 2026-05-04 09:17 | 36.26255 | 109.16781 | 32113 ft | 469 kts | 185° |
| 2026-05-04 09:18 | 36.19707 | 109.16331 | 32105 ft | 469 kts | 185° |
| 2026-05-04 09:18 | 36.13131 | 109.15882 | 32105 ft | 469 kts | 185° |
| 2026-05-04 09:19 | 36.06566 | 109.15439 | 32100 ft | 469 kts | 185° |
| 2026-05-04 09:19 | 36.00031 | 109.15002 | 32094 ft | 468 kts | 185° |
| 2026-05-04 09:20 | 35.93501 | 109.14567 | 32091 ft | 469 kts | 185° |
| 2026-05-04 09:20 | 35.86883 | 109.14011 | 32097 ft | 467 kts | 189° |
| 2026-05-04 09:21 | 35.80519 | 109.12343 | 32101 ft | 465 kts | 200° |
| 2026-05-04 09:21 | 35.74406 | 109.09773 | 32102 ft | 464 kts | 203° |
| 2026-05-04 09:22 | 35.68339 | 109.06971 | 32100 ft | 462 kts | 204° |
| 2026-05-04 09:22 | 35.62285 | 109.04178 | 32098 ft | 463 kts | 204° |
| 2026-05-04 09:23 | 35.56238 | 109.01436 | 32093 ft | 463 kts | 203° |
| 2026-05-04 09:23 | 35.50163 | 108.98717 | 32099 ft | 464 kts | 203° |
| 2026-05-04 09:25 | 35.25782 | 108.87955 | 32103 ft | 464 kts | 203° |
| 2026-05-04 09:26 | 35.19694 | 108.85282 | 32109 ft | 464 kts | 203° |
| 2026-05-04 09:26 | 35.13595 | 108.82610 | 32101 ft | 463 kts | 203° |
| 2026-05-04 09:27 | 35.07495 | 108.79940 | 32100 ft | 465 kts | 203° |
| 2026-05-04 09:27 | 35.01403 | 108.77277 | 32094 ft | 464 kts | 203° |
| 2026-05-04 09:28 | 34.95262 | 108.74598 | 32089 ft | 465 kts | 203° |
| 2026-05-04 09:28 | 34.89142 | 108.71933 | 32091 ft | 465 kts | 203° |
| 2026-05-04 09:29 | 34.82987 | 108.69257 | 32079 ft | 465 kts | 203° |
| 2026-05-04 09:29 | 34.76859 | 108.66596 | 32073 ft | 465 kts | 202° |
| 2026-05-04 09:30 | 34.70735 | 108.63942 | 32053 ft | 466 kts | 203° |
| 2026-05-04 09:30 | 34.64653 | 108.61309 | 32041 ft | 466 kts | 203° |
| 2026-05-04 09:31 | 34.58492 | 108.58647 | 32024 ft | 467 kts | 202° |
| 2026-05-04 09:31 | 34.52353 | 108.55999 | 32020 ft | 467 kts | 202° |
| 2026-05-04 09:32 | 34.46221 | 108.53358 | 32015 ft | 466 kts | 202° |
| 2026-05-04 09:34 | 34.21646 | 108.42813 | 32036 ft | 468 kts | 202° |
| 2026-05-04 09:34 | 34.15461 | 108.40170 | 32089 ft | 468 kts | 202° |
| 2026-05-04 09:35 | 34.09310 | 108.37545 | 32127 ft | 467 kts | 202° |
| 2026-05-04 09:35 | 34.03167 | 108.34929 | 32154 ft | 466 kts | 202° |
| 2026-05-04 09:37 | 33.78398 | 108.24417 | 32235 ft | 467 kts | 202° |
| 2026-05-04 09:38 | 33.72223 | 108.21808 | 32242 ft | 466 kts | 202° |
| 2026-05-04 09:38 | 33.66065 | 108.19205 | 32213 ft | 466 kts | 202° |
| 2026-05-04 09:39 | 33.59948 | 108.16627 | 32197 ft | 467 kts | 202° |
| 2026-05-04 09:39 | 33.53779 | 108.14030 | 32167 ft | 467 kts | 202° |
| 2026-05-04 09:40 | 33.47657 | 108.11458 | 32148 ft | 467 kts | 202° |
| 2026-05-04 09:40 | 33.41497 | 108.08873 | 32146 ft | 466 kts | 202° |
| 2026-05-04 09:42 | 33.16512 | 107.99913 | 32117 ft | 468 kts | 199° |
| 2026-05-04 09:43 | 33.10262 | 107.97707 | 32123 ft | 467 kts | 199° |
| 2026-05-04 09:43 | 33.04017 | 107.95493 | 32132 ft | 466 kts | 200° |
| 2026-05-04 09:44 | 32.97785 | 107.93285 | 32127 ft | 465 kts | 200° |
| 2026-05-04 09:46 | 32.72769 | 107.84442 | 32123 ft | 466 kts | 200° |
| 2026-05-04 09:46 | 32.66505 | 107.82232 | 32141 ft | 467 kts | 200° |
| 2026-05-04 09:47 | 32.60254 | 107.80019 | 32141 ft | 466 kts | 200° |
| 2026-05-04 09:49 | 32.35335 | 107.71300 | 32162 ft | 466 kts | 200° |
| 2026-05-04 09:51 | 32.13488 | 107.63680 | 32173 ft | 466 kts | 201° |
| 2026-05-04 09:51 | 32.07279 | 107.61520 | 32173 ft | 465 kts | 201° |
| 2026-05-04 09:52 | 32.01025 | 107.59355 | 32171 ft | 467 kts | 201° |
| 2026-05-04 09:52 | 31.94779 | 107.57179 | 32168 ft | 466 kts | 201° |
| 2026-05-04 09:53 | 31.88513 | 107.55019 | 32151 ft | 466 kts | 201° |
| 2026-05-04 09:53 | 31.82251 | 107.52853 | 32154 ft | 466 kts | 202° |
| 2026-05-04 09:54 | 31.75995 | 107.50689 | 32171 ft | 466 kts | 202° |
| 2026-05-04 09:54 | 31.69746 | 107.48535 | 32152 ft | 466 kts | 202° |
| 2026-05-04 09:55 | 31.63510 | 107.46397 | 32146 ft | 465 kts | 202° |
| 2026-05-04 09:55 | 31.57247 | 107.44249 | 32131 ft | 466 kts | 202° |
| 2026-05-04 09:56 | 31.50990 | 107.42114 | 32134 ft | 465 kts | 202° |
| 2026-05-04 09:56 | 31.44775 | 107.39986 | 32120 ft | 466 kts | 202° |
| 2026-05-04 09:57 | 31.38703 | 107.37498 | 32125 ft | 459 kts | 210° |
| 2026-05-04 09:57 | 31.32955 | 107.34256 | 32108 ft | 454 kts | 213° |
| 2026-05-04 09:58 | 31.27326 | 107.30840 | 32112 ft | 454 kts | 213° |
| 2026-05-04 09:58 | 31.21648 | 107.27384 | 32100 ft | 455 kts | 213° |
| 2026-05-04 10:00 | 30.99102 | 107.13911 | 32096 ft | 453 kts | 214° |
| 2026-05-04 10:04 | 30.57412 | 106.96560 | 32105 ft | 481 kts | 185° |
| 2026-05-04 10:04 | 30.50720 | 106.96795 | 32117 ft | 481 kts | 185° |
| 2026-05-04 10:05 | 30.44020 | 106.96991 | 32114 ft | 479 kts | 186° |
| 2026-05-04 10:05 | 30.37327 | 106.97126 | 32106 ft | 480 kts | 186° |
| 2026-05-04 10:06 | 30.30644 | 106.97182 | 32098 ft | 476 kts | 188° |
| 2026-05-04 10:06 | 30.23999 | 106.97103 | 32096 ft | 476 kts | 188° |
| 2026-05-04 10:08 | 30.00714 | 106.96753 | 32106 ft | 476 kts | 188° |
| 2026-05-04 10:08 | 29.94120 | 106.96674 | 32120 ft | 473 kts | 189° |
| 2026-05-04 10:09 | 29.87431 | 106.96592 | 32111 ft | 475 kts | 189° |
| 2026-05-04 10:09 | 29.80831 | 106.96515 | 32111 ft | 474 kts | 189° |
| 2026-05-04 10:10 | 29.74179 | 106.96434 | 32105 ft | 472 kts | 189° |
| 2026-05-04 10:10 | 29.67584 | 106.96358 | 32107 ft | 472 kts | 189° |
| 2026-05-04 10:11 | 29.60986 | 106.96278 | 32113 ft | 472 kts | 189° |
| 2026-05-04 10:11 | 29.54421 | 106.96201 | 32118 ft | 469 kts | 189° |
| 2026-05-04 10:12 | 29.47799 | 106.96122 | 32120 ft | 471 kts | 189° |
| 2026-05-04 10:12 | 29.41229 | 106.96046 | 32132 ft | 470 kts | 189° |
| 2026-05-04 10:13 | 29.34665 | 106.95963 | 32145 ft | 468 kts | 189° |
| 2026-05-04 10:13 | 29.28169 | 106.95885 | 32150 ft | 467 kts | 189° |
| 2026-05-04 10:14 | 29.21592 | 106.95805 | 32155 ft | 468 kts | 189° |
| 2026-05-04 10:16 | 28.99059 | 106.95558 | 31513 ft | 439 kts | 190° |
| 2026-05-04 10:16 | 28.96019 | 106.95532 | 31290 ft | 430 kts | 191° |
| 2026-05-04 10:16 | 28.93028 | 106.95503 | 31062 ft | 422 kts | 191° |
| 2026-05-04 10:16 | 28.90103 | 106.95468 | 30839 ft | 421 kts | 191° |
| 2026-05-04 10:17 | 28.87102 | 106.95422 | 30614 ft | 423 kts | 191° |
| 2026-05-04 10:17 | 28.84131 | 106.95374 | 30386 ft | 425 kts | 191° |
| 2026-05-04 10:19 | 28.63533 | 106.95103 | 28768 ft | 428 kts | 191° |
| 2026-05-04 10:19 | 28.60524 | 106.95066 | 28514 ft | 430 kts | 191° |
| 2026-05-04 10:19 | 28.57527 | 106.95031 | 28260 ft | 428 kts | 191° |
| 2026-05-04 10:19 | 28.54556 | 106.94998 | 28007 ft | 428 kts | 190° |
| 2026-05-04 10:20 | 28.51550 | 106.94961 | 27729 ft | 432 kts | 190° |
| 2026-05-04 10:20 | 28.48519 | 106.94922 | 27352 ft | 433 kts | 190° |
| 2026-05-04 10:20 | 28.45518 | 106.94887 | 26984 ft | 432 kts | 190° |
| 2026-05-04 10:20 | 28.42529 | 106.94852 | 26619 ft | 432 kts | 190° |
| 2026-05-04 10:21 | 28.39507 | 106.94818 | 26240 ft | 432 kts | 190° |
| 2026-05-04 10:21 | 28.36504 | 106.94782 | 25865 ft | 433 kts | 189° |
| 2026-05-04 10:21 | 28.33470 | 106.94739 | 25493 ft | 434 kts | 189° |
| 2026-05-04 10:21 | 28.30438 | 106.94700 | 25116 ft | 434 kts | 190° |
| 2026-05-04 10:22 | 28.24386 | 106.94638 | 24347 ft | 432 kts | 189° |
| 2026-05-04 10:22 | 28.21347 | 106.94662 | 23969 ft | 431 kts | 187° |
| 2026-05-04 10:22 | 28.18382 | 106.94795 | 23593 ft | 429 kts | 186° |
| 2026-05-04 10:23 | 28.15385 | 106.94984 | 23224 ft | 429 kts | 185° |
| 2026-05-04 10:23 | 28.12390 | 106.95181 | 22842 ft | 429 kts | 185° |
| 2026-05-04 10:25 | 27.91975 | 106.96397 | 20192 ft | 407 kts | 184° |
| 2026-05-04 10:25 | 27.89101 | 106.96543 | 19838 ft | 407 kts | 184° |
| 2026-05-04 10:25 | 27.86228 | 106.96691 | 19471 ft | 404 kts | 183° |
| 2026-05-04 10:25 | 27.83429 | 106.96837 | 19114 ft | 402 kts | 183° |
| 2026-05-04 10:26 | 27.80638 | 106.96982 | 18766 ft | 401 kts | 183° |
| 2026-05-04 10:26 | 27.77829 | 106.97128 | 18403 ft | 399 kts | 182° |
| 2026-05-04 10:26 | 27.75077 | 106.97271 | 18048 ft | 397 kts | 182° |
| 2026-05-04 10:26 | 27.72303 | 106.97417 | 17685 ft | 394 kts | 182° |
| 2026-05-04 10:27 | 27.69583 | 106.97561 | 17323 ft | 392 kts | 181° |
| 2026-05-04 10:27 | 27.66859 | 106.97703 | 16955 ft | 388 kts | 181° |
| 2026-05-04 10:27 | 27.64182 | 106.97844 | 16578 ft | 385 kts | 181° |
| 2026-05-04 10:27 | 27.61515 | 106.97985 | 16204 ft | 379 kts | 181° |
| 2026-05-04 10:28 | 27.59060 | 106.98117 | 15880 ft | 374 kts | 181° |
| 2026-05-04 10:28 | 27.56470 | 106.98257 | 15559 ft | 369 kts | 181° |
| 2026-05-04 10:28 | 27.53902 | 106.98395 | 15218 ft | 366 kts | 182° |
| 2026-05-04 10:28 | 27.51343 | 106.98528 | 14855 ft | 364 kts | 181° |
| 2026-05-04 10:29 | 27.48807 | 106.98660 | 14491 ft | 362 kts | 181° |
| 2026-05-04 10:29 | 27.46317 | 106.98778 | 14131 ft | 359 kts | 182° |
| 2026-05-04 10:29 | 27.43797 | 106.98835 | 13762 ft | 356 kts | 183° |
| 2026-05-04 10:29 | 27.41318 | 106.98851 | 13396 ft | 353 kts | 183° |
| 2026-05-04 10:30 | 27.38869 | 106.98858 | 13029 ft | 347 kts | 183° |
| 2026-05-04 10:30 | 27.36451 | 106.98868 | 12661 ft | 341 kts | 183° |
| 2026-05-04 10:30 | 27.34072 | 106.98882 | 12294 ft | 337 kts | 182° |
| 2026-05-04 10:30 | 27.31716 | 106.98898 | 11929 ft | 335 kts | 182° |
| 2026-05-04 10:31 | 27.29366 | 106.98918 | 11564 ft | 334 kts | 182° |
| 2026-05-04 10:31 | 27.27062 | 106.98940 | 11203 ft | 332 kts | 182° |
| 2026-05-04 10:32 | 27.13882 | 106.96300 | 8999 ft | 310 kts | 203° |
| 2026-05-04 10:33 | 27.11915 | 106.95393 | 8607 ft | 302 kts | 202° |
| 2026-05-04 10:33 | 27.09962 | 106.94531 | 8292 ft | 294 kts | 201° |
| 2026-05-04 10:33 | 27.08047 | 106.93710 | 7923 ft | 292 kts | 200° |
| 2026-05-04 10:33 | 27.06177 | 106.92922 | 7879 ft | 277 kts | 200° |
| 2026-05-04 10:34 | 27.04416 | 106.92187 | 7894 ft | 260 kts | 200° |
| 2026-05-04 10:34 | 27.02738 | 106.91472 | 7901 ft | 246 kts | 200° |
| 2026-05-04 10:34 | 27.01152 | 106.90775 | 7912 ft | 244 kts | 201° |
| 2026-05-04 10:34 | 26.99557 | 106.90066 | 7914 ft | 245 kts | 201° |
| 2026-05-04 10:35 | 26.97946 | 106.89331 | 7914 ft | 245 kts | 202° |
| 2026-05-04 10:35 | 26.96365 | 106.88648 | 7913 ft | 245 kts | 197° |
| 2026-05-04 10:35 | 26.94697 | 106.88125 | 7913 ft | 245 kts | 192° |
| 2026-05-04 10:35 | 26.93017 | 106.87740 | 7911 ft | 244 kts | 190° |
| 2026-05-04 10:36 | 26.91333 | 106.87405 | 7911 ft | 244 kts | 189° |
| 2026-05-04 10:36 | 26.89673 | 106.87083 | 7910 ft | 244 kts | 189° |
| 2026-05-04 10:36 | 26.87962 | 106.86755 | 7909 ft | 244 kts | 189° |
| 2026-05-04 10:36 | 26.86262 | 106.86427 | 7907 ft | 244 kts | 189° |
| 2026-05-04 10:37 | 26.84569 | 106.86098 | 7906 ft | 244 kts | 189° |
| 2026-05-04 10:37 | 26.82909 | 106.85773 | 7912 ft | 234 kts | 189° |
| 2026-05-04 10:37 | 26.81362 | 106.85471 | 7882 ft | 221 kts | 189° |
| 2026-05-04 10:37 | 26.79842 | 106.85175 | 7885 ft | 222 kts | 189° |
| 2026-05-04 10:39 | 26.71489 | 106.83548 | 6947 ft | 176 kts | 189° |
| 2026-05-04 10:39 | 26.70292 | 106.83315 | 6641 ft | 172 kts | 189° |
| 2026-05-04 10:39 | 26.69119 | 106.83086 | 6445 ft | 172 kts | 188° |
| 2026-05-04 10:40 | 26.67946 | 106.82858 | 6205 ft | 170 kts | 188° |
| 2026-05-04 10:40 | 26.66767 | 106.82629 | 5978 ft | 169 kts | 188° |
| 2026-05-04 10:40 | 26.65619 | 106.82405 | 5763 ft | 167 kts | 189° |
| 2026-05-04 10:40 | 26.64459 | 106.82180 | 5549 ft | 169 kts | 189° |
| 2026-05-04 10:41 | 26.63296 | 106.81954 | 5332 ft | 168 kts | 189° |
| 2026-05-04 10:41 | 26.62151 | 106.81731 | 5116 ft | 168 kts | 189° |
| 2026-05-04 10:41 | 26.60988 | 106.81505 | 4891 ft | 167 kts | 189° |
| 2026-05-04 10:41 | 26.59845 | 106.81283 | 4667 ft | 167 kts | 189° |
| 2026-05-04 10:42 | 26.58698 | 106.81061 | 4449 ft | 166 kts | 189° |
| 2026-05-04 10:42 | 26.57568 | 106.80840 | 4233 ft | 165 kts | 189° |
| 2026-05-04 10:42 | 26.56428 | 106.80619 | 4015 ft | 164 kts | 189° |
| 2026-05-04 10:42 | 26.55309 | 106.80408 | 3806 ft | 162 kts | 189° |
| 2026-05-04 10:43 | 26.54264 | 106.80206 | 3745 ft | 124 kts | 189° |
| 2026-05-04 10:44 | 26.53158 | 106.79800 | 3745 ft | 6 kts | 9° |
| 2026-05-04 10:45 | 26.53210 | 106.79810 | 3745 ft | 8 kts | 10° |
| 2026-05-04 10:45 | 26.53277 | 106.79824 | 3745 ft | 11 kts | 10° |
| 2026-05-04 10:45 | 26.53360 | 106.79840 | 3745 ft | 11 kts | 10° |
| 2026-05-04 10:45 | 26.53430 | 106.79854 | 3745 ft | 8 kts | 9° |
| 2026-05-04 10:46 | 26.53486 | 106.79864 | 3745 ft | 8 kts | 10° |
| 2026-05-04 10:46 | 26.53557 | 106.79878 | 3745 ft | 11 kts | 10° |
| 2026-05-04 10:46 | 26.53645 | 106.79895 | 3745 ft | 14 kts | 10° |
| 2026-05-04 10:46 | 26.53749 | 106.79915 | 3745 ft | 15 kts | 10° |
| 2026-05-04 10:47 | 26.53866 | 106.79939 | 3745 ft | 18 kts | 9° |
| 2026-05-04 10:47 | 26.53999 | 106.79964 | 3745 ft | 20 kts | 10° |
| 2026-05-04 10:47 | 26.54126 | 106.79988 | 3746 ft | 11 kts | 10° |
| 2026-05-04 10:47 | 26.54213 | 106.79996 | 3746 ft | 11 kts | 337° |
| 2026-05-04 10:49 | 26.54738 | 106.80026 | 3746 ft | 6 kts | 9° |
| 2026-05-04 10:49 | 26.54777 | 106.80022 | 3746 ft | 4 kts | 329° |
| 2026-05-04 10:50 | 26.54785 | 106.80015 | 3746 ft | 0 kts | 309° |
| 2026-05-04 10:51 | 26.54853 | 106.79887 | 3746 ft | 0 kts | 7° |
| 2026-05-04 10:52 | 26.54866 | 106.79889 | 3746 ft | 1 kts | 8° |
| 2026-05-04 10:52 | 26.54868 | 106.79890 | 3746 ft | 0 kts | 8° |